IOLK1: Grand River, Iola

Data processed at Sun Sep 23 2018 22:02


All information presented herein is the property of the government of the United States of America and may be revised or deleted at any time without prior notice.
Dissemination of this information without the expressed written consent of the Public Affairs Office, Tulsa District U.S. Army Corps of Engineers is strictly prohibited.
These data are gathered electronically and, as presented, have not undergone any form of quality control. These data are not guaranteed to be valid or correct.
Go to home page.
Go to station list.
Go to home page.

Upstream stations:

Downstream station:
Previous Day
Next Day
Current Day
    
SHEF ID:       IOLK1     NEOSHO RIVER NEAR IOLA
STATION TYPE:  

               PRECIP     STAGE  RIV-FLOW  AIR-TEMP  BAT-LOAD
                   in        ft       cfs         F      volt
              Ccp-Rev   Ccp-Rev   Ccp-Rev   Ccp-Rev   Ccp-Rev
(US/Central)
09/23 00:00      0.00      7.84      1285     58.16     12.73
09/23 01:00      0.00      7.84      1285     57.62     12.65
09/23 02:00      0.00      7.84      1285     56.78     12.65
09/23 03:00      0.00      7.83      1268     55.65     12.65
09/23 04:00      0.00      7.83      1268     56.00     12.65
09/23 05:00      0.00      7.83      1268     53.93     12.57
09/23 06:00      0.00      7.83      1268     53.48     12.57
09/23 07:00      0.00      7.83      1268     52.98     12.57
09/23 08:00      0.00      7.82      1251     58.45     12.57
09/23 09:00      0.00      7.82      1251     64.42     13.29
09/23 10:00      0.00      7.82      1251     68.23     13.53
09/23 11:00      0.00      7.83      1268     71.11     13.53
09/23 12:00      0.00      7.83      1268     73.31     13.68
09/23 13:00      0.00      7.82      1251     77.04     13.60
09/23 14:00      0.00      7.82      1251     77.72     13.68
09/23 15:00      0.00      7.82      1251     78.86     13.68
09/23 16:00      0.00      7.82      1251     80.61     13.60
09/23 17:00      0.00      7.82      1251     80.66     13.53
09/23 18:00      0.00      7.82      1251     79.24     13.53
09/23 19:00      0.00      7.82      1251     76.44     13.44
09/23 20:00      0.00      7.82      1251     72.68     12.81
09/23 21:00      0.00      7.82      1251     70.22     12.81
09/23 22:00      ----      ----      ----      ----      ----
09/23 23:00      ----      ----      ----      ----      ----